sensor_id;sensor_type;location;lat;lon;timestamp;P1;durP1;ratioP1;P2;durP2;ratioP2
15616;SDS011;7908;51.688;7.130;2022-12-20T00:01:33;7.97;;;5.13;;
15616;SDS011;7908;51.688;7.130;2022-12-20T00:04:05;6.77;;;4.70;;
15616;SDS011;7908;51.688;7.130;2022-12-20T00:06:33;6.93;;;4.33;;
15616;SDS011;7908;51.688;7.130;2022-12-20T00:09:03;9.63;;;6.57;;
15616;SDS011;7908;51.688;7.130;2022-12-20T00:11:34;11.97;;;6.37;;
15616;SDS011;7908;51.688;7.130;2022-12-20T00:14:04;8.70;;;5.80;;
15616;SDS011;7908;51.688;7.130;2022-12-20T00:16:35;10.37;;;6.83;;
15616;SDS011;7908;51.688;7.130;2022-12-20T00:19:05;9.47;;;6.03;;
15616;SDS011;7908;51.688;7.130;2022-12-20T00:21:34;12.90;;;8.00;;
15616;SDS011;7908;51.688;7.130;2022-12-20T00:24:05;14.77;;;8.27;;
15616;SDS011;7908;51.688;7.130;2022-12-20T00:26:34;16.67;;;9.63;;
15616;SDS011;7908;51.688;7.130;2022-12-20T00:29:03;17.17;;;9.23;;
15616;SDS011;7908;51.688;7.130;2022-12-20T00:31:34;19.80;;;9.37;;
15616;SDS011;7908;51.688;7.130;2022-12-20T00:34:03;16.70;;;8.57;;
15616;SDS011;7908;51.688;7.130;2022-12-20T00:36:32;24.50;;;12.13;;
15616;SDS011;7908;51.688;7.130;2022-12-20T00:39:02;18.50;;;11.13;;
15616;SDS011;7908;51.688;7.130;2022-12-20T00:41:32;21.30;;;12.90;;
15616;SDS011;7908;51.688;7.130;2022-12-20T00:44:02;11.93;;;8.20;;
15616;SDS011;7908;51.688;7.130;2022-12-20T00:46:31;7.77;;;5.17;;
15616;SDS011;7908;51.688;7.130;2022-12-20T00:49:02;8.33;;;5.63;;
15616;SDS011;7908;51.688;7.130;2022-12-20T00:51:32;7.00;;;5.03;;
15616;SDS011;7908;51.688;7.130;2022-12-20T00:54:03;6.73;;;5.03;;
15616;SDS011;7908;51.688;7.130;2022-12-20T00:56:32;6.80;;;5.00;;
15616;SDS011;7908;51.688;7.130;2022-12-20T00:59:00;6.37;;;5.10;;
15616;SDS011;7908;51.688;7.130;2022-12-20T01:01:30;7.13;;;4.40;;
15616;SDS011;7908;51.688;7.130;2022-12-20T01:04:00;4.30;;;2.60;;
15616;SDS011;7908;51.688;7.130;2022-12-20T01:06:31;3.87;;;2.60;;
15616;SDS011;7908;51.688;7.130;2022-12-20T01:09:01;4.20;;;2.43;;
15616;SDS011;7908;51.688;7.130;2022-12-20T01:11:31;4.20;;;2.50;;
15616;SDS011;7908;51.688;7.130;2022-12-20T01:14:04;4.03;;;2.43;;
15616;SDS011;7908;51.688;7.130;2022-12-20T01:16:39;4.10;;;2.53;;
15616;SDS011;7908;51.688;7.130;2022-12-20T01:19:11;3.73;;;2.40;;
15616;SDS011;7908;51.688;7.130;2022-12-20T01:21:42;3.30;;;2.50;;
15616;SDS011;7908;51.688;7.130;2022-12-20T01:24:11;3.57;;;2.40;;
15616;SDS011;7908;51.688;7.130;2022-12-20T01:26:40;2.90;;;2.20;;
15616;SDS011;7908;51.688;7.130;2022-12-20T01:29:09;3.00;;;2.23;;
15616;SDS011;7908;51.688;7.130;2022-12-20T01:31:37;3.70;;;2.37;;
15616;SDS011;7908;51.688;7.130;2022-12-20T01:34:06;3.93;;;2.27;;
15616;SDS011;7908;51.688;7.130;2022-12-20T01:36:36;3.60;;;1.87;;
15616;SDS011;7908;51.688;7.130;2022-12-20T01:39:06;2.93;;;2.10;;
15616;SDS011;7908;51.688;7.130;2022-12-20T01:41:38;3.00;;;2.20;;
15616;SDS011;7908;51.688;7.130;2022-12-20T01:47:09;5.40;;;3.50;;
15616;SDS011;7908;51.688;7.130;2022-12-20T01:49:41;4.67;;;3.20;;
15616;SDS011;7908;51.688;7.130;2022-12-20T01:52:16;5.13;;;3.93;;
15616;SDS011;7908;51.688;7.130;2022-12-20T01:54:48;4.83;;;3.47;;
15616;SDS011;7908;51.688;7.130;2022-12-20T01:57:20;4.73;;;3.27;;
15616;SDS011;7908;51.688;7.130;2022-12-20T01:59:52;4.80;;;2.67;;
15616;SDS011;7908;51.688;7.130;2022-12-20T02:02:22;4.10;;;2.47;;
15616;SDS011;7908;51.688;7.130;2022-12-20T02:04:51;2.77;;;2.30;;
15616;SDS011;7908;51.688;7.130;2022-12-20T02:07:23;4.37;;;2.30;;
15616;SDS011;7908;51.688;7.130;2022-12-20T02:09:54;3.40;;;2.23;;
15616;SDS011;7908;51.688;7.130;2022-12-20T02:12:25;4.30;;;2.67;;
15616;SDS011;7908;51.688;7.130;2022-12-20T02:15:01;4.50;;;3.00;;
15616;SDS011;7908;51.688;7.130;2022-12-20T02:17:42;4.93;;;2.63;;
15616;SDS011;7908;51.688;7.130;2022-12-20T02:26:39;3.20;;;2.43;;
15616;SDS011;7908;51.688;7.130;2022-12-20T02:29:32;4.43;;;3.37;;
15616;SDS011;7908;51.688;7.130;2022-12-20T02:32:07;4.87;;;3.47;;
15616;SDS011;7908;51.688;7.130;2022-12-20T02:34:41;5.90;;;3.90;;
15616;SDS011;7908;51.688;7.130;2022-12-20T02:37:10;4.97;;;3.77;;
15616;SDS011;7908;51.688;7.130;2022-12-20T02:39:39;5.70;;;3.93;;
15616;SDS011;7908;51.688;7.130;2022-12-20T02:42:11;3.60;;;2.93;;
15616;SDS011;7908;51.688;7.130;2022-12-20T02:44:42;5.17;;;3.23;;
15616;SDS011;7908;51.688;7.130;2022-12-20T02:47:34;4.30;;;3.23;;
15616;SDS011;7908;51.688;7.130;2022-12-20T02:50:06;4.70;;;3.30;;
15616;SDS011;7908;51.688;7.130;2022-12-20T02:52:36;5.47;;;3.27;;
15616;SDS011;7908;51.688;7.130;2022-12-20T02:55:08;3.77;;;2.70;;
15616;SDS011;7908;51.688;7.130;2022-12-20T02:57:38;5.10;;;2.70;;
15616;SDS011;7908;51.688;7.130;2022-12-20T03:00:13;2.40;;;2.10;;
15616;SDS011;7908;51.688;7.130;2022-12-20T03:02:44;4.33;;;2.40;;
15616;SDS011;7908;51.688;7.130;2022-12-20T03:05:33;2.77;;;2.50;;
15616;SDS011;7908;51.688;7.130;2022-12-20T03:08:09;5.97;;;2.57;;
15616;SDS011;7908;51.688;7.130;2022-12-20T03:10:38;3.30;;;2.67;;
15616;SDS011;7908;51.688;7.130;2022-12-20T03:13:07;4.30;;;2.70;;
15616;SDS011;7908;51.688;7.130;2022-12-20T03:15:35;3.27;;;2.40;;
15616;SDS011;7908;51.688;7.130;2022-12-20T03:18:06;5.03;;;2.80;;
15616;SDS011;7908;51.688;7.130;2022-12-20T03:20:34;5.77;;;3.30;;
15616;SDS011;7908;51.688;7.130;2022-12-20T03:23:03;3.60;;;2.63;;
15616;SDS011;7908;51.688;7.130;2022-12-20T03:25:32;5.30;;;3.13;;
15616;SDS011;7908;51.688;7.130;2022-12-20T03:28:00;6.00;;;3.73;;
15616;SDS011;7908;51.688;7.130;2022-12-20T03:30:29;7.13;;;3.50;;
15616;SDS011;7908;51.688;7.130;2022-12-20T03:32:57;6.10;;;3.70;;
15616;SDS011;7908;51.688;7.130;2022-12-20T03:35:27;5.00;;;3.70;;
15616;SDS011;7908;51.688;7.130;2022-12-20T03:37:56;6.73;;;3.70;;
15616;SDS011;7908;51.688;7.130;2022-12-20T03:40:24;6.13;;;3.73;;
15616;SDS011;7908;51.688;7.130;2022-12-20T03:42:53;5.63;;;3.40;;
15616;SDS011;7908;51.688;7.130;2022-12-20T03:45:21;5.07;;;3.13;;
15616;SDS011;7908;51.688;7.130;2022-12-20T03:47:50;5.40;;;2.93;;
15616;SDS011;7908;51.688;7.130;2022-12-20T03:50:18;5.77;;;3.20;;
15616;SDS011;7908;51.688;7.130;2022-12-20T03:52:48;3.20;;;2.83;;
15616;SDS011;7908;51.688;7.130;2022-12-20T03:55:16;4.37;;;3.13;;
15616;SDS011;7908;51.688;7.130;2022-12-20T03:57:45;4.40;;;3.17;;
15616;SDS011;7908;51.688;7.130;2022-12-20T04:00:14;4.23;;;3.23;;
15616;SDS011;7908;51.688;7.130;2022-12-20T04:02:44;5.60;;;3.60;;
15616;SDS011;7908;51.688;7.130;2022-12-20T04:05:13;3.90;;;3.07;;
15616;SDS011;7908;51.688;7.130;2022-12-20T04:07:42;3.47;;;3.00;;
15616;SDS011;7908;51.688;7.130;2022-12-20T04:10:12;5.90;;;3.57;;
15616;SDS011;7908;51.688;7.130;2022-12-20T04:12:41;5.10;;;3.13;;
15616;SDS011;7908;51.688;7.130;2022-12-20T04:15:09;5.17;;;3.33;;
15616;SDS011;7908;51.688;7.130;2022-12-20T04:17:38;5.17;;;3.80;;
15616;SDS011;7908;51.688;7.130;2022-12-20T04:20:07;5.40;;;3.63;;
15616;SDS011;7908;51.688;7.130;2022-12-20T04:22:45;5.40;;;3.83;;
15616;SDS011;7908;51.688;7.130;2022-12-20T04:25:17;4.33;;;3.73;;
15616;SDS011;7908;51.688;7.130;2022-12-20T04:27:47;4.90;;;3.73;;
15616;SDS011;7908;51.688;7.130;2022-12-20T04:30:16;4.50;;;3.60;;
15616;SDS011;7908;51.688;7.130;2022-12-20T04:32:44;4.40;;;3.30;;
15616;SDS011;7908;51.688;7.130;2022-12-20T04:35:13;4.67;;;3.60;;
15616;SDS011;7908;51.688;7.130;2022-12-20T04:37:42;4.43;;;3.83;;
15616;SDS011;7908;51.688;7.130;2022-12-20T04:40:10;5.37;;;3.90;;
15616;SDS011;7908;51.688;7.130;2022-12-20T04:42:41;6.17;;;3.40;;
15616;SDS011;7908;51.688;7.130;2022-12-20T04:45:10;3.97;;;3.40;;
15616;SDS011;7908;51.688;7.130;2022-12-20T04:47:39;5.67;;;4.00;;
15616;SDS011;7908;51.688;7.130;2022-12-20T04:50:09;5.03;;;3.90;;
15616;SDS011;7908;51.688;7.130;2022-12-20T04:52:37;5.43;;;4.03;;
15616;SDS011;7908;51.688;7.130;2022-12-20T04:55:23;5.97;;;3.77;;
15616;SDS011;7908;51.688;7.130;2022-12-20T04:57:53;5.97;;;4.10;;
15616;SDS011;7908;51.688;7.130;2022-12-20T05:00:30;5.20;;;3.87;;
15616;SDS011;7908;51.688;7.130;2022-12-20T05:02:59;4.57;;;3.83;;
15616;SDS011;7908;51.688;7.130;2022-12-20T05:05:28;5.53;;;3.53;;
15616;SDS011;7908;51.688;7.130;2022-12-20T05:07:57;6.23;;;3.57;;
15616;SDS011;7908;51.688;7.130;2022-12-20T05:10:25;5.80;;;4.10;;
15616;SDS011;7908;51.688;7.130;2022-12-20T05:12:55;7.77;;;4.03;;
15616;SDS011;7908;51.688;7.130;2022-12-20T05:15:27;6.23;;;4.00;;
15616;SDS011;7908;51.688;7.130;2022-12-20T05:17:55;5.90;;;4.03;;
15616;SDS011;7908;51.688;7.130;2022-12-20T05:20:25;5.43;;;4.23;;
15616;SDS011;7908;51.688;7.130;2022-12-20T05:22:54;8.43;;;4.30;;
15616;SDS011;7908;51.688;7.130;2022-12-20T05:25:41;5.40;;;4.50;;
15616;SDS011;7908;51.688;7.130;2022-12-20T05:28:31;7.33;;;4.63;;
15616;SDS011;7908;51.688;7.130;2022-12-20T05:31:00;7.13;;;4.80;;
15616;SDS011;7908;51.688;7.130;2022-12-20T05:33:29;7.23;;;4.57;;
15616;SDS011;7908;51.688;7.130;2022-12-20T05:35:59;5.37;;;4.57;;
15616;SDS011;7908;51.688;7.130;2022-12-20T05:38:28;8.67;;;6.80;;
15616;SDS011;7908;51.688;7.130;2022-12-20T05:40:57;14.43;;;9.70;;
15616;SDS011;7908;51.688;7.130;2022-12-20T05:43:25;16.20;;;9.73;;
15616;SDS011;7908;51.688;7.130;2022-12-20T05:45:55;17.10;;;10.50;;
15616;SDS011;7908;51.688;7.130;2022-12-20T05:48:23;17.07;;;13.07;;
15616;SDS011;7908;51.688;7.130;2022-12-20T05:50:52;13.90;;;10.53;;
15616;SDS011;7908;51.688;7.130;2022-12-20T05:53:21;10.17;;;6.73;;
15616;SDS011;7908;51.688;7.130;2022-12-20T05:55:50;8.33;;;6.23;;
15616;SDS011;7908;51.688;7.130;2022-12-20T05:58:20;9.03;;;5.90;;
15616;SDS011;7908;51.688;7.130;2022-12-20T06:00:48;7.67;;;6.10;;
15616;SDS011;7908;51.688;7.130;2022-12-20T06:03:19;7.37;;;6.03;;
15616;SDS011;7908;51.688;7.130;2022-12-20T06:05:47;8.00;;;5.13;;
15616;SDS011;7908;51.688;7.130;2022-12-20T06:08:16;7.27;;;5.00;;
15616;SDS011;7908;51.688;7.130;2022-12-20T06:10:46;5.93;;;4.47;;
15616;SDS011;7908;51.688;7.130;2022-12-20T06:13:16;7.87;;;5.23;;
15616;SDS011;7908;51.688;7.130;2022-12-20T06:15:45;7.70;;;4.90;;
15616;SDS011;7908;51.688;7.130;2022-12-20T06:18:14;7.30;;;4.97;;
15616;SDS011;7908;51.688;7.130;2022-12-20T06:20:48;5.77;;;4.43;;
15616;SDS011;7908;51.688;7.130;2022-12-20T06:23:17;6.57;;;4.90;;
15616;SDS011;7908;51.688;7.130;2022-12-20T06:25:46;6.07;;;4.50;;
15616;SDS011;7908;51.688;7.130;2022-12-20T06:28:15;5.80;;;4.40;;
15616;SDS011;7908;51.688;7.130;2022-12-20T06:30:51;6.17;;;4.00;;
15616;SDS011;7908;51.688;7.130;2022-12-20T06:33:20;6.40;;;4.37;;
15616;SDS011;7908;51.688;7.130;2022-12-20T06:35:50;5.83;;;4.63;;
15616;SDS011;7908;51.688;7.130;2022-12-20T06:38:19;8.77;;;4.50;;
15616;SDS011;7908;51.688;7.130;2022-12-20T06:40:47;5.40;;;4.60;;
15616;SDS011;7908;51.688;7.130;2022-12-20T06:43:15;7.47;;;5.13;;
15616;SDS011;7908;51.688;7.130;2022-12-20T06:45:44;7.47;;;4.50;;
15616;SDS011;7908;51.688;7.130;2022-12-20T06:48:13;7.63;;;4.27;;
15616;SDS011;7908;51.688;7.130;2022-12-20T06:50:45;6.57;;;4.17;;
15616;SDS011;7908;51.688;7.130;2022-12-20T06:53:23;6.23;;;4.40;;
15616;SDS011;7908;51.688;7.130;2022-12-20T06:55:52;8.40;;;5.07;;
15616;SDS011;7908;51.688;7.130;2022-12-20T06:58:20;6.40;;;4.13;;
15616;SDS011;7908;51.688;7.130;2022-12-20T07:00:49;4.83;;;4.13;;
15616;SDS011;7908;51.688;7.130;2022-12-20T07:03:18;5.57;;;3.90;;
15616;SDS011;7908;51.688;7.130;2022-12-20T07:05:49;5.10;;;3.53;;
15616;SDS011;7908;51.688;7.130;2022-12-20T07:08:18;7.63;;;4.27;;
15616;SDS011;7908;51.688;7.130;2022-12-20T07:10:49;5.40;;;3.83;;
15616;SDS011;7908;51.688;7.130;2022-12-20T07:13:18;4.90;;;3.57;;
15616;SDS011;7908;51.688;7.130;2022-12-20T07:15:47;6.17;;;3.27;;
15616;SDS011;7908;51.688;7.130;2022-12-20T07:18:15;4.50;;;3.37;;
15616;SDS011;7908;51.688;7.130;2022-12-20T07:20:44;4.53;;;3.50;;
15616;SDS011;7908;51.688;7.130;2022-12-20T07:23:12;4.10;;;3.40;;
15616;SDS011;7908;51.688;7.130;2022-12-20T07:25:41;3.73;;;3.00;;
15616;SDS011;7908;51.688;7.130;2022-12-20T07:28:11;5.50;;;2.83;;
15616;SDS011;7908;51.688;7.130;2022-12-20T07:30:40;4.70;;;2.87;;
15616;SDS011;7908;51.688;7.130;2022-12-20T07:33:08;5.00;;;3.13;;
15616;SDS011;7908;51.688;7.130;2022-12-20T07:35:38;3.70;;;3.10;;
15616;SDS011;7908;51.688;7.130;2022-12-20T07:38:07;5.77;;;3.03;;
15616;SDS011;7908;51.688;7.130;2022-12-20T07:40:35;4.93;;;2.87;;
15616;SDS011;7908;51.688;7.130;2022-12-20T07:43:07;6.63;;;3.00;;
15616;SDS011;7908;51.688;7.130;2022-12-20T07:45:38;4.37;;;3.07;;
15616;SDS011;7908;51.688;7.130;2022-12-20T07:48:07;4.87;;;2.80;;
15616;SDS011;7908;51.688;7.130;2022-12-20T07:50:45;5.27;;;2.83;;
15616;SDS011;7908;51.688;7.130;2022-12-20T07:53:13;4.73;;;2.67;;
15616;SDS011;7908;51.688;7.130;2022-12-20T07:55:43;3.47;;;2.63;;
15616;SDS011;7908;51.688;7.130;2022-12-20T07:58:15;4.87;;;2.77;;
15616;SDS011;7908;51.688;7.130;2022-12-20T08:00:46;5.23;;;2.60;;
15616;SDS011;7908;51.688;7.130;2022-12-20T08:03:15;3.10;;;2.80;;
15616;SDS011;7908;51.688;7.130;2022-12-20T08:05:47;5.70;;;2.93;;
15616;SDS011;7908;51.688;7.130;2022-12-20T08:08:20;3.43;;;2.20;;
15616;SDS011;7908;51.688;7.130;2022-12-20T08:10:49;6.47;;;2.40;;
15616;SDS011;7908;51.688;7.130;2022-12-20T08:13:17;5.57;;;2.73;;
15616;SDS011;7908;51.688;7.130;2022-12-20T08:15:47;5.07;;;2.27;;
15616;SDS011;7908;51.688;7.130;2022-12-20T08:18:16;2.80;;;2.23;;
15616;SDS011;7908;51.688;7.130;2022-12-20T08:20:45;3.07;;;2.20;;
15616;SDS011;7908;51.688;7.130;2022-12-20T08:23:13;4.73;;;2.17;;
15616;SDS011;7908;51.688;7.130;2022-12-20T08:25:42;3.23;;;2.50;;
15616;SDS011;7908;51.688;7.130;2022-12-20T08:28:11;4.77;;;2.60;;
15616;SDS011;7908;51.688;7.130;2022-12-20T08:30:40;4.20;;;2.50;;
15616;SDS011;7908;51.688;7.130;2022-12-20T08:33:10;4.30;;;2.50;;
15616;SDS011;7908;51.688;7.130;2022-12-20T08:35:39;4.90;;;2.30;;
15616;SDS011;7908;51.688;7.130;2022-12-20T08:38:07;3.20;;;2.27;;
15616;SDS011;7908;51.688;7.130;2022-12-20T08:40:36;4.73;;;2.73;;
15616;SDS011;7908;51.688;7.130;2022-12-20T08:43:04;3.30;;;2.93;;
15616;SDS011;7908;51.688;7.130;2022-12-20T08:45:35;5.63;;;3.30;;
15616;SDS011;7908;51.688;7.130;2022-12-20T08:48:04;5.13;;;3.80;;
15616;SDS011;7908;51.688;7.130;2022-12-20T08:50:37;5.27;;;4.53;;
15616;SDS011;7908;51.688;7.130;2022-12-20T08:53:06;7.13;;;4.13;;
15616;SDS011;7908;51.688;7.130;2022-12-20T08:55:34;3.83;;;2.50;;
15616;SDS011;7908;51.688;7.130;2022-12-20T08:58:03;3.57;;;2.37;;
15616;SDS011;7908;51.688;7.130;2022-12-20T09:00:32;3.83;;;3.10;;
15616;SDS011;7908;51.688;7.130;2022-12-20T09:03:00;5.50;;;3.60;;
15616;SDS011;7908;51.688;7.130;2022-12-20T09:05:30;7.97;;;3.33;;
15616;SDS011;7908;51.688;7.130;2022-12-20T09:08:00;10.23;;;7.03;;
15616;SDS011;7908;51.688;7.130;2022-12-20T09:10:29;8.57;;;5.10;;
15616;SDS011;7908;51.688;7.130;2022-12-20T09:12:57;11.90;;;8.23;;
15616;SDS011;7908;51.688;7.130;2022-12-20T09:15:26;7.80;;;6.00;;
15616;SDS011;7908;51.688;7.130;2022-12-20T09:17:55;6.20;;;4.60;;
15616;SDS011;7908;51.688;7.130;2022-12-20T09:20:26;6.00;;;4.27;;
15616;SDS011;7908;51.688;7.130;2022-12-20T09:22:54;11.20;;;7.87;;
15616;SDS011;7908;51.688;7.130;2022-12-20T09:25:31;10.17;;;6.27;;
15616;SDS011;7908;51.688;7.130;2022-12-20T09:28:00;9.10;;;6.27;;
15616;SDS011;7908;51.688;7.130;2022-12-20T09:30:32;16.53;;;7.57;;
15616;SDS011;7908;51.688;7.130;2022-12-20T09:33:07;7.77;;;4.27;;
15616;SDS011;7908;51.688;7.130;2022-12-20T09:35:36;7.57;;;3.87;;
15616;SDS011;7908;51.688;7.130;2022-12-20T09:38:11;13.73;;;6.23;;
15616;SDS011;7908;51.688;7.130;2022-12-20T09:40:45;13.20;;;7.73;;
15616;SDS011;7908;51.688;7.130;2022-12-20T09:43:16;9.00;;;5.63;;
15616;SDS011;7908;51.688;7.130;2022-12-20T09:45:45;7.97;;;4.40;;
15616;SDS011;7908;51.688;7.130;2022-12-20T09:48:18;12.03;;;6.33;;
15616;SDS011;7908;51.688;7.130;2022-12-20T09:50:52;10.43;;;5.00;;
15616;SDS011;7908;51.688;7.130;2022-12-20T09:53:32;11.60;;;6.13;;
15616;SDS011;7908;51.688;7.130;2022-12-20T09:56:25;12.70;;;5.73;;
15616;SDS011;7908;51.688;7.130;2022-12-20T09:58:58;12.70;;;5.27;;
15616;SDS011;7908;51.688;7.130;2022-12-20T10:01:32;12.57;;;6.13;;
15616;SDS011;7908;51.688;7.130;2022-12-20T10:04:06;10.60;;;4.47;;
15616;SDS011;7908;51.688;7.130;2022-12-20T10:06:52;16.13;;;6.60;;
15616;SDS011;7908;51.688;7.130;2022-12-20T10:09:44;9.87;;;5.30;;
15616;SDS011;7908;51.688;7.130;2022-12-20T10:12:24;11.60;;;6.00;;
15616;SDS011;7908;51.688;7.130;2022-12-20T10:15:06;13.07;;;7.67;;
15616;SDS011;7908;51.688;7.130;2022-12-20T10:17:50;8.67;;;5.30;;
15616;SDS011;7908;51.688;7.130;2022-12-20T10:20:31;7.50;;;4.80;;
15616;SDS011;7908;51.688;7.130;2022-12-20T10:23:10;6.53;;;4.13;;
15616;SDS011;7908;51.688;7.130;2022-12-20T10:25:58;7.47;;;3.80;;
15616;SDS011;7908;51.688;7.130;2022-12-20T10:28:28;3.67;;;2.73;;
15616;SDS011;7908;51.688;7.130;2022-12-20T10:31:00;5.43;;;3.30;;
15616;SDS011;7908;51.688;7.130;2022-12-20T10:33:32;4.80;;;2.90;;
15616;SDS011;7908;51.688;7.130;2022-12-20T10:36:17;5.23;;;3.07;;
15616;SDS011;7908;51.688;7.130;2022-12-20T10:38:53;3.97;;;3.03;;
15616;SDS011;7908;51.688;7.130;2022-12-20T10:41:23;4.23;;;2.50;;
15616;SDS011;7908;51.688;7.130;2022-12-20T10:43:57;4.77;;;2.90;;
15616;SDS011;7908;51.688;7.130;2022-12-20T10:46:36;3.87;;;2.53;;
15616;SDS011;7908;51.688;7.130;2022-12-20T10:51:57;5.03;;;3.17;;
15616;SDS011;7908;51.688;7.130;2022-12-20T10:54:29;6.57;;;3.20;;
15616;SDS011;7908;51.688;7.130;2022-12-20T10:57:06;8.67;;;4.70;;
15616;SDS011;7908;51.688;7.130;2022-12-20T10:59:48;7.23;;;3.30;;
15616;SDS011;7908;51.688;7.130;2022-12-20T11:02:26;3.90;;;2.40;;
15616;SDS011;7908;51.688;7.130;2022-12-20T11:07:58;4.97;;;2.90;;
15616;SDS011;7908;51.688;7.130;2022-12-20T11:11:09;6.30;;;3.00;;
15616;SDS011;7908;51.688;7.130;2022-12-20T11:13:45;6.27;;;3.07;;
15616;SDS011;7908;51.688;7.130;2022-12-20T11:16:32;5.33;;;2.73;;
15616;SDS011;7908;51.688;7.130;2022-12-20T11:19:07;5.40;;;2.73;;
15616;SDS011;7908;51.688;7.130;2022-12-20T11:21:53;4.70;;;2.47;;
15616;SDS011;7908;51.688;7.130;2022-12-20T11:24:30;4.30;;;2.60;;
15616;SDS011;7908;51.688;7.130;2022-12-20T11:27:19;4.47;;;2.53;;
15616;SDS011;7908;51.688;7.130;2022-12-20T11:32:55;4.80;;;3.10;;
15616;SDS011;7908;51.688;7.130;2022-12-20T11:35:47;5.13;;;2.97;;
15616;SDS011;7908;51.688;7.130;2022-12-20T11:38:24;3.00;;;2.17;;
15616;SDS011;7908;51.688;7.130;2022-12-20T11:41:07;3.87;;;2.10;;
15616;SDS011;7908;51.688;7.130;2022-12-20T11:43:48;5.07;;;3.10;;
15616;SDS011;7908;51.688;7.130;2022-12-20T11:47:04;6.27;;;3.53;;
15616;SDS011;7908;51.688;7.130;2022-12-20T11:49:58;6.30;;;3.37;;
15616;SDS011;7908;51.688;7.130;2022-12-20T11:52:45;6.70;;;4.80;;
15616;SDS011;7908;51.688;7.130;2022-12-20T11:55:19;6.03;;;4.10;;
15616;SDS011;7908;51.688;7.130;2022-12-20T11:57:59;4.00;;;3.03;;
15616;SDS011;7908;51.688;7.130;2022-12-20T12:00:49;5.57;;;3.40;;
15616;SDS011;7908;51.688;7.130;2022-12-20T12:03:26;5.50;;;4.90;;
15616;SDS011;7908;51.688;7.130;2022-12-20T12:06:01;4.93;;;2.67;;
15616;SDS011;7908;51.688;7.130;2022-12-20T12:08:37;6.20;;;3.50;;
15616;SDS011;7908;51.688;7.130;2022-12-20T12:11:16;5.90;;;3.07;;
15616;SDS011;7908;51.688;7.130;2022-12-20T12:14:28;5.27;;;3.10;;
15616;SDS011;7908;51.688;7.130;2022-12-20T12:17:06;7.07;;;3.93;;
15616;SDS011;7908;51.688;7.130;2022-12-20T12:19:49;6.50;;;3.70;;
15616;SDS011;7908;51.688;7.130;2022-12-20T12:22:29;8.03;;;4.23;;
15616;SDS011;7908;51.688;7.130;2022-12-20T12:25:09;9.37;;;5.70;;
15616;SDS011;7908;51.688;7.130;2022-12-20T12:27:45;13.30;;;9.20;;
15616;SDS011;7908;51.688;7.130;2022-12-20T12:30:24;5.47;;;3.80;;
15616;SDS011;7908;51.688;7.130;2022-12-20T12:33:19;4.10;;;2.80;;
15616;SDS011;7908;51.688;7.130;2022-12-20T12:42:28;9.00;;;6.40;;
15616;SDS011;7908;51.688;7.130;2022-12-20T12:45:23;5.60;;;4.00;;
15616;SDS011;7908;51.688;7.130;2022-12-20T12:48:01;4.73;;;3.00;;
15616;SDS011;7908;51.688;7.130;2022-12-20T12:50:50;5.83;;;2.67;;
15616;SDS011;7908;51.688;7.130;2022-12-20T12:53:29;4.37;;;2.60;;
15616;SDS011;7908;51.688;7.130;2022-12-20T13:02:34;6.00;;;2.57;;
15616;SDS011;7908;51.688;7.130;2022-12-20T13:08:14;6.10;;;3.10;;
15616;SDS011;7908;51.688;7.130;2022-12-20T13:10:56;4.03;;;2.43;;
15616;SDS011;7908;51.688;7.130;2022-12-20T13:13:34;4.93;;;2.40;;
15616;SDS011;7908;51.688;7.130;2022-12-20T13:16:08;4.83;;;2.27;;
15616;SDS011;7908;51.688;7.130;2022-12-20T13:19:28;2.10;;;1.60;;
15616;SDS011;7908;51.688;7.130;2022-12-20T13:22:17;2.87;;;1.97;;
15616;SDS011;7908;51.688;7.130;2022-12-20T13:24:56;3.97;;;1.93;;
15616;SDS011;7908;51.688;7.130;2022-12-20T13:27:29;4.63;;;2.60;;
15616;SDS011;7908;51.688;7.130;2022-12-20T13:35:59;3.80;;;2.53;;
15616;SDS011;7908;51.688;7.130;2022-12-20T13:38:37;3.27;;;1.90;;
15616;SDS011;7908;51.688;7.130;2022-12-20T13:41:27;2.40;;;1.90;;
15616;SDS011;7908;51.688;7.130;2022-12-20T13:47:05;5.07;;;3.10;;
15616;SDS011;7908;51.688;7.130;2022-12-20T13:49:58;5.40;;;2.80;;
15616;SDS011;7908;51.688;7.130;2022-12-20T13:52:35;6.17;;;2.90;;
15616;SDS011;7908;51.688;7.130;2022-12-20T13:55:14;4.43;;;2.83;;
15616;SDS011;7908;51.688;7.130;2022-12-20T13:57:55;5.70;;;3.00;;
15616;SDS011;7908;51.688;7.130;2022-12-20T14:00:28;5.07;;;3.10;;
15616;SDS011;7908;51.688;7.130;2022-12-20T14:03:13;5.40;;;3.27;;
15616;SDS011;7908;51.688;7.130;2022-12-20T14:06:03;6.93;;;3.83;;
15616;SDS011;7908;51.688;7.130;2022-12-20T14:08:58;5.17;;;3.60;;
15616;SDS011;7908;51.688;7.130;2022-12-20T14:11:28;5.67;;;4.00;;
15616;SDS011;7908;51.688;7.130;2022-12-20T14:13:58;6.73;;;4.20;;
15616;SDS011;7908;51.688;7.130;2022-12-20T14:16:30;7.50;;;4.37;;
15616;SDS011;7908;51.688;7.130;2022-12-20T14:19:02;10.23;;;4.50;;
15616;SDS011;7908;51.688;7.130;2022-12-20T14:21:34;8.33;;;4.70;;
15616;SDS011;7908;51.688;7.130;2022-12-20T14:24:10;11.17;;;5.63;;
15616;SDS011;7908;51.688;7.130;2022-12-20T14:26:46;9.07;;;5.87;;
15616;SDS011;7908;51.688;7.130;2022-12-20T14:29:25;10.67;;;5.90;;
15616;SDS011;7908;51.688;7.130;2022-12-20T14:31:59;8.47;;;5.80;;
15616;SDS011;7908;51.688;7.130;2022-12-20T14:34:35;9.97;;;6.47;;
15616;SDS011;7908;51.688;7.130;2022-12-20T14:37:17;10.40;;;6.30;;
15616;SDS011;7908;51.688;7.130;2022-12-20T14:39:59;10.47;;;6.73;;
15616;SDS011;7908;51.688;7.130;2022-12-20T14:42:36;8.40;;;6.20;;
15616;SDS011;7908;51.688;7.130;2022-12-20T14:45:16;8.33;;;6.73;;
15616;SDS011;7908;51.688;7.130;2022-12-20T14:47:57;9.37;;;7.70;;
15616;SDS011;7908;51.688;7.130;2022-12-20T14:50:30;11.67;;;7.57;;
15616;SDS011;7908;51.688;7.130;2022-12-20T14:53:00;12.37;;;7.80;;
15616;SDS011;7908;51.688;7.130;2022-12-20T14:55:33;11.77;;;7.50;;
15616;SDS011;7908;51.688;7.130;2022-12-20T14:58:23;15.53;;;8.67;;
15616;SDS011;7908;51.688;7.130;2022-12-20T15:01:17;12.27;;;7.27;;
15616;SDS011;7908;51.688;7.130;2022-12-20T15:03:56;12.00;;;7.83;;
15616;SDS011;7908;51.688;7.130;2022-12-20T15:06:30;9.93;;;6.60;;
15616;SDS011;7908;51.688;7.130;2022-12-20T15:09:17;14.40;;;7.80;;
15616;SDS011;7908;51.688;7.130;2022-12-20T15:11:52;13.20;;;7.60;;
15616;SDS011;7908;51.688;7.130;2022-12-20T15:14:32;13.33;;;8.03;;
15616;SDS011;7908;51.688;7.130;2022-12-20T15:17:10;12.33;;;8.00;;
15616;SDS011;7908;51.688;7.130;2022-12-20T15:19:52;11.97;;;7.43;;
15616;SDS011;7908;51.688;7.130;2022-12-20T15:22:40;17.23;;;7.97;;
15616;SDS011;7908;51.688;7.130;2022-12-20T15:25:13;12.27;;;8.00;;
15616;SDS011;7908;51.688;7.130;2022-12-20T15:27:50;14.33;;;8.83;;
15616;SDS011;7908;51.688;7.130;2022-12-20T15:30:19;12.03;;;8.03;;
15616;SDS011;7908;51.688;7.130;2022-12-20T15:32:49;10.10;;;7.70;;
15616;SDS011;7908;51.688;7.130;2022-12-20T15:35:21;12.30;;;8.20;;
15616;SDS011;7908;51.688;7.130;2022-12-20T15:37:51;12.63;;;8.17;;
15616;SDS011;7908;51.688;7.130;2022-12-20T15:40:21;12.90;;;8.57;;
15616;SDS011;7908;51.688;7.130;2022-12-20T15:43:12;16.47;;;9.87;;
15616;SDS011;7908;51.688;7.130;2022-12-20T15:45:44;16.90;;;9.13;;
15616;SDS011;7908;51.688;7.130;2022-12-20T15:48:28;13.90;;;8.47;;
15616;SDS011;7908;51.688;7.130;2022-12-20T15:51:05;16.77;;;9.87;;
15616;SDS011;7908;51.688;7.130;2022-12-20T15:53:54;15.27;;;9.43;;
15616;SDS011;7908;51.688;7.130;2022-12-20T15:56:25;16.30;;;9.33;;
15616;SDS011;7908;51.688;7.130;2022-12-20T15:58:59;20.87;;;10.43;;
15616;SDS011;7908;51.688;7.130;2022-12-20T16:01:54;12.43;;;9.67;;
15616;SDS011;7908;51.688;7.130;2022-12-20T16:04:30;14.43;;;10.27;;
15616;SDS011;7908;51.688;7.130;2022-12-20T16:07:15;10.93;;;9.43;;
15616;SDS011;7908;51.688;7.130;2022-12-20T16:09:44;14.70;;;8.33;;
15616;SDS011;7908;51.688;7.130;2022-12-20T16:12:18;17.27;;;8.60;;
15616;SDS011;7908;51.688;7.130;2022-12-20T16:14:53;15.47;;;8.50;;
15616;SDS011;7908;51.688;7.130;2022-12-20T16:17:25;11.60;;;8.60;;
15616;SDS011;7908;51.688;7.130;2022-12-20T16:19:54;12.47;;;8.87;;
15616;SDS011;7908;51.688;7.130;2022-12-20T16:22:27;12.80;;;9.27;;